Mobjack, Virginia
Current Conditions -  °F | °C
As of 5:15 PM on Monday 26 Jan 2015 (Local Time) from KW75 Reporting Station
Overcast Overcast  
Wind Chill: 32°   Ceiling: 800
Heat Index: 39°   Visibility: 10mi
Dew Point: 36°   Wind: 10mph
Humidity: 89%   Direction: 340°NNW
Pressure: 29.63"   Gusts: 18mph
Location:  37.3805°N, 76.3593°W
Report Text: KW75 262215Z AUTO 34009G16KT 10SM OVC008 04/02 A2963 RMK AO1 T00370021
Loading
Personal Weather Stations






























Interactive Weather Map New forecast layout! Learn more

10-Day Weather Forecast

Advertisements
Track Severe Weather on mobile